createdAt,value
2018-07-27T00:08:21.677Z,16.49
2018-07-27T00:18:19.523Z,16.30
2018-07-27T00:28:17.742Z,16.10
2018-07-27T00:38:09.651Z,15.91
2018-07-27T00:48:08.281Z,15.71
2018-07-27T00:58:06.031Z,15.61
2018-07-27T01:08:01.945Z,15.51
2018-07-27T01:18:00.462Z,15.42
2018-07-27T01:27:58.208Z,15.32
2018-07-27T01:37:53.607Z,15.22
2018-07-27T01:47:51.079Z,15.22
2018-07-27T01:57:47.998Z,15.12
2018-07-27T02:07:46.497Z,15.02
2018-07-27T02:17:46.111Z,15.03
2018-07-27T02:27:43.351Z,14.93
2018-07-27T02:37:38.409Z,14.93
2018-07-27T02:47:36.940Z,14.83
2018-07-27T02:57:32.273Z,14.83
2018-07-27T03:07:29.888Z,14.93
2018-07-27T03:17:28.190Z,14.83
2018-07-27T03:27:23.557Z,14.83
2018-07-27T03:37:22.470Z,14.93
2018-07-27T03:47:19.048Z,14.93
2018-07-27T03:57:17.640Z,14.93
2018-07-27T04:07:13.223Z,15.02
2018-07-27T04:17:11.139Z,15.22
2018-07-27T04:27:09.045Z,15.42
2018-07-27T04:37:01.132Z,15.81
2018-07-27T04:46:59.964Z,16.20
2018-07-27T04:56:57.658Z,16.69
2018-07-27T05:06:53.976Z,17.08
2018-07-27T05:16:48.826Z,17.47
2018-07-27T05:26:42.030Z,17.67
2018-07-27T05:36:37.976Z,17.67
2018-07-27T05:46:35.365Z,17.86
2018-07-27T05:56:32.340Z,18.15
2018-07-27T06:06:29.027Z,18.25
2018-07-27T06:16:27.142Z,18.64
2018-07-27T06:26:24.040Z,19.43
2018-07-27T06:36:23.928Z,20.01
2018-07-27T06:46:20.927Z,20.41
2018-07-27T06:56:17.735Z,21.09
2018-07-27T07:06:15.121Z,21.29
2018-07-27T07:16:11.253Z,21.58
2018-07-27T07:26:08.106Z,22.26
2018-07-27T07:36:02.432Z,22.56
2018-07-27T07:46:01.247Z,22.75
2018-07-27T07:55:58.909Z,22.95
2018-07-27T08:05:57.285Z,23.34
2018-07-27T08:15:55.958Z,23.44
2018-07-27T08:25:50.796Z,23.53
2018-07-27T08:35:48.627Z,23.53
2018-07-27T08:45:47.854Z,23.93
2018-07-27T08:55:46.673Z,24.22
2018-07-27T09:05:43.195Z,24.61
2018-07-27T09:15:41.098Z,25.00
2018-07-27T09:25:37.863Z,25.39
2018-07-27T09:35:34.788Z,25.59
2018-07-27T09:45:33.322Z,25.78
2018-07-27T09:55:31.423Z,26.27
2018-07-27T10:05:28.152Z,26.56
2018-07-27T10:15:25.335Z,26.96
2018-07-27T10:25:23.815Z,27.54
2018-07-27T10:35:23.833Z,28.23
2018-07-27T10:45:23.186Z,27.64
2018-07-27T10:55:18.617Z,28.81
2018-07-27T11:05:15.035Z,28.23
2018-07-27T11:15:11.034Z,25.98
2018-07-27T11:25:07.604Z,26.37
2018-07-27T11:35:03.715Z,24.61
2018-07-27T11:44:58.890Z,24.32
2018-07-27T11:54:59.893Z,27.05
2018-07-27T12:04:58.833Z,28.23
2018-07-27T12:14:58.994Z,29.30
2018-07-27T12:24:33.957Z,29.69
2018-07-27T12:34:13.521Z,29.99
2018-07-27T12:43:52.969Z,32.53
2018-07-27T12:53:31.331Z,31.55
2018-07-27T13:03:09.087Z,31.45
2018-07-27T13:12:48.930Z,32.92
2018-07-27T13:22:28.199Z,31.75
2018-07-27T13:32:01.756Z,30.48
2018-07-27T13:41:31.267Z,31.55
2018-07-27T13:51:09.063Z,30.48
2018-07-27T14:00:47.129Z,31.16
2018-07-27T14:10:23.099Z,31.16
2018-07-27T14:20:00.987Z,29.99
2018-07-27T14:29:40.735Z,29.69
2018-07-27T14:39:10.000Z,28.72
2018-07-27T14:48:49.781Z,28.42
2018-07-27T14:58:42.876Z,29.30
2018-07-27T15:08:43.377Z,30.87
2018-07-27T15:18:44.887Z,30.97
2018-07-27T15:28:37.906Z,29.60
2018-07-27T15:38:32.063Z,29.30
2018-07-27T15:48:28.550Z,28.81
2018-07-27T15:58:23.817Z,28.13
2018-07-27T16:08:17.980Z,27.93
2018-07-27T16:18:16.053Z,28.03
2018-07-27T16:28:10.555Z,27.54
2018-07-27T16:38:07.044Z,27.05
2018-07-27T16:48:04.485Z,26.76
2018-07-27T16:58:00.666Z,26.66
2018-07-27T17:07:57.014Z,26.37
2018-07-27T17:17:48.611Z,26.17
2018-07-27T17:27:40.485Z,25.78
2018-07-27T17:37:36.762Z,25.59
2018-07-27T17:47:32.970Z,25.10
2018-07-27T17:57:29.465Z,24.81
2018-07-27T18:07:25.313Z,24.51
2018-07-27T18:17:20.615Z,24.12
2018-07-27T18:27:15.801Z,23.73
2018-07-27T18:37:11.802Z,23.24
2018-07-27T18:47:08.297Z,23.05
2018-07-27T18:57:04.574Z,22.85
2018-07-27T19:06:55.593Z,22.36
2018-07-27T19:16:46.192Z,21.97
2018-07-27T19:26:42.680Z,21.77
2018-07-27T19:36:39.870Z,21.38
2018-07-27T19:46:33.747Z,21.09
2018-07-27T19:56:28.472Z,20.80
2018-07-27T20:06:22.820Z,20.60
2018-07-27T20:16:18.772Z,20.70
2018-07-27T20:26:12.332Z,20.40
2018-07-27T20:36:07.701Z,20.31
2018-07-27T20:46:05.160Z,20.31
2018-07-27T20:56:00.558Z,20.21
2018-07-27T21:05:57.516Z,20.01
2018-07-27T21:15:52.913Z,19.92
2018-07-27T21:25:48.885Z,19.82
2018-07-27T21:35:43.763Z,19.72
2018-07-27T21:45:40.117Z,19.62
2018-07-27T21:55:34.733Z,19.43
2018-07-27T22:05:30.227Z,19.33
2018-07-27T22:15:27.579Z,19.33
2018-07-27T22:25:24.797Z,19.13
2018-07-27T22:35:18.824Z,19.03
2018-07-27T22:45:15.872Z,18.94
2018-07-27T22:55:12.458Z,18.84
2018-07-27T23:05:10.046Z,18.94
2018-07-27T23:15:08.918Z,18.84
2018-07-27T23:25:05.147Z,18.64
2018-07-27T23:35:03.627Z,18.45
2018-07-27T23:44:59.497Z,18.15
2018-07-27T23:54:55.275Z,18.06
